Time;durP1;ratioP1;P1;durP2;ratioP2;P2;SDS_P1;SDS_P2;PMS_P1;PMS_P2;Temp;Humidity;BMP_temperature;BMP_pressure;BME280_temperature;BME280_humidity;BME280_pressure;Samples;Min_cycle;Max_cycle;Signal;HPM_P1;HPM_P2
2022/11/30 00:02:17;;;;;;;39.73;19.93;;;12.30;61.20;;;;;;5010248;28;20457;-88
2022/11/30 00:04:44;;;;;;;44.33;20.70;;;12.30;61.20;;;;;;5069108;28;20476;-85
2022/11/30 00:07:11;;;;;;;40.57;19.80;;;12.40;61.10;;;;;;5038056;28;20454;-87
2022/11/30 00:09:38;;;;;;;37.03;19.43;;;12.40;60.80;;;;;;5035330;28;20574;-85
2022/11/30 00:12:07;;;;;;;33.70;18.00;;;12.40;60.90;;;;;;5056121;28;20522;-85
2022/11/30 00:14:34;;;;;;;33.20;15.93;;;12.40;61.00;;;;;;5050748;28;20476;-85
2022/11/30 00:17:01;;;;;;;38.73;18.10;;;12.50;61.10;;;;;;5068504;28;20986;-86
2022/11/30 00:19:28;;;;;;;38.70;18.90;;;12.50;60.90;;;;;;5037758;28;20452;-86
2022/11/30 00:21:55;;;;;;;37.47;19.47;;;12.40;60.90;;;;;;5038897;28;20472;-85
2022/11/30 00:24:22;;;;;;;34.87;18.77;;;12.30;61.00;;;;;;5024948;28;20446;-85
2022/11/30 00:26:49;;;;;;;37.23;20.10;;;12.30;61.00;;;;;;5024608;28;20461;-89
2022/11/30 00:29:18;;;;;;;35.13;19.63;;;12.10;61.40;;;;;;5037546;28;20553;-87
2022/11/30 00:31:45;;;;;;;33.37;18.87;;;12.10;61.80;;;;;;5052470;28;20534;-85
2022/11/30 00:34:12;;;;;;;31.30;17.73;;;12.20;61.90;;;;;;5022387;28;20436;-86
2022/11/30 00:36:39;;;;;;;36.30;19.17;;;12.20;61.80;;;;;;5051764;28;20433;-84
2022/11/30 00:39:06;;;;;;;32.60;18.47;;;12.30;61.60;;;;;;5035545;28;20436;-86
2022/11/30 00:41:33;;;;;;;39.20;20.20;;;12.30;61.40;;;;;;5035614;28;20480;-86
2022/11/30 00:44:00;;;;;;;34.13;20.00;;;12.40;61.10;;;;;;5021701;28;20636;-86
2022/11/30 00:46:28;;;;;;;37.40;18.47;;;12.40;60.80;;;;;;5037470;28;20952;-85
2022/11/30 00:48:55;;;;;;;34.47;17.90;;;12.40;60.90;;;;;;5031446;28;20479;-85
2022/11/30 00:51:22;;;;;;;30.90;18.47;;;12.40;61.10;;;;;;5028533;28;20472;-90
2022/11/30 00:53:49;;;;;;;37.30;20.27;;;12.40;60.80;;;;;;5049832;28;20503;-85
2022/11/30 00:56:16;;;;;;;37.00;17.60;;;12.30;60.80;;;;;;5057222;28;20448;-86
2022/11/30 00:58:43;;;;;;;39.97;18.50;;;12.30;61.00;;;;;;5070657;28;20453;-87
2022/11/30 01:01:10;;;;;;;28.17;16.40;;;12.30;60.90;;;;;;5054388;28;20460;-85
2022/11/30 01:03:39;;;;;;;33.80;18.30;;;12.30;60.50;;;;;;5054594;28;20760;-85
2022/11/30 01:06:08;;;;;;;37.10;19.23;;;12.30;60.50;;;;;;5043529;28;20442;-86
2022/11/30 01:08:35;;;;;;;48.77;25.37;;;12.20;60.90;;;;;;5052030;28;20995;-86
2022/11/30 01:11:08;;;;;;;55.07;27.80;;;12.20;61.40;;;;;;5019473;28;20559;-86
2022/11/30 01:13:35;;;;;;;44.03;22.60;;;12.10;61.60;;;;;;5055494;28;20496;-85
2022/11/30 01:16:07;;;;;;;41.93;21.17;;;12.20;61.60;;;;;;5050005;28;20456;-86
2022/11/30 01:18:36;;;;;;;33.77;19.80;;;12.30;61.40;;;;;;5019937;28;20969;-89
2022/11/30 01:21:07;;;;;;;37.47;19.50;;;12.40;61.30;;;;;;5040934;28;20472;-85
2022/11/30 01:23:34;;;;;;;36.37;21.00;;;12.40;61.20;;;;;;5041073;28;20503;-85
2022/11/30 01:26:01;;;;;;;33.60;17.70;;;12.40;61.10;;;;;;5009736;28;20456;-85
2022/11/30 01:28:28;;;;;;;29.47;17.83;;;12.30;61.50;;;;;;5035726;28;20468;-85
2022/11/30 01:30:57;;;;;;;37.40;18.20;;;12.20;61.60;;;;;;5054923;28;21770;-88
2022/11/30 01:33:24;;;;;;;35.57;18.90;;;12.30;62.30;;;;;;5056291;28;20453;-87
2022/11/30 01:35:59;;;;;;;36.17;18.63;;;12.30;61.30;;;;;;5056042;28;20457;-84
2022/11/30 01:38:30;;;;;;;40.80;19.17;;;12.40;61.10;;;;;;5072930;28;20449;-88
2022/11/30 01:40:57;;;;;;;33.90;18.57;;;12.40;61.10;;;;;;5030836;28;21552;-85
2022/11/30 01:43:38;;;;;;;39.67;20.83;;;12.40;60.90;;;;;;5055889;28;20460;-87
2022/11/30 01:46:05;;;;;;;31.60;17.03;;;12.50;61.00;;;;;;5058607;28;20871;-85
2022/11/30 01:48:33;;;;;;;37.93;18.17;;;12.40;60.90;;;;;;5068446;28;20480;-88
2022/11/30 01:51:00;;;;;;;36.30;17.83;;;12.40;60.60;;;;;;5009511;28;20965;-85
2022/11/30 01:53:28;;;;;;;31.43;16.70;;;12.30;60.90;;;;;;5057104;28;20441;-85
2022/11/30 01:55:55;;;;;;;35.63;17.20;;;12.20;61.20;;;;;;5071544;28;21508;-88
2022/11/30 01:58:27;;;;;;;32.80;16.93;;;12.20;61.30;;;;;;5038462;28;21146;-90
2022/11/30 02:00:54;;;;;;;39.20;18.43;;;12.30;61.40;;;;;;5055181;28;20468;-85
2022/11/30 02:03:30;;;;;;;37.67;17.43;;;12.30;61.30;;;;;;5054725;28;20450;-90
2022/11/30 02:05:58;;;;;;;36.77;17.30;;;12.20;61.40;;;;;;5038213;28;20472;-85
2022/11/30 02:08:26;;;;;;;38.40;17.73;;;12.10;61.70;;;;;;5054149;28;20634;-88
2022/11/30 02:10:58;;;;;;;37.27;18.30;;;12.20;61.80;;;;;;5055259;28;20914;-88
2022/11/30 02:13:43;;;;;;;32.40;17.90;;;12.30;61.20;;;;;;5056130;28;20500;-89
2022/11/30 02:16:18;;;;;;;39.20;17.43;;;12.30;61.00;;;;;;5029244;28;20449;-86
2022/11/30 02:18:53;;;;;;;38.43;17.77;;;12.20;61.20;;;;;;5009284;28;20448;-89
2022/11/30 02:21:27;;;;;;;31.17;16.27;;;12.20;61.50;;;;;;5013452;28;21010;-85
2022/11/30 02:24:27;;;;;;;34.97;17.33;;;12.20;61.50;;;;;;5028024;28;20450;-86
2022/11/30 02:27:22;;;;;;;33.10;15.50;;;12.20;61.90;;;;;;5032651;28;20481;-88
2022/11/30 02:29:54;;;;;;;36.53;15.10;;;12.00;61.90;;;;;;5055662;28;20477;-85
2022/11/30 02:32:25;;;;;;;30.27;15.60;;;12.00;62.00;;;;;;5070627;28;20804;-86
2022/11/30 02:34:54;;;;;;;34.30;15.40;;;12.00;61.90;;;;;;5054057;28;20445;-85
2022/11/30 02:37:23;;;;;;;41.13;16.33;;;12.20;61.80;;;;;;5040138;28;20454;-89
2022/11/30 02:39:50;;;;;;;36.23;17.07;;;12.30;61.70;;;;;;5056232;28;20441;-86
2022/11/30 02:42:17;;;;;;;38.87;16.40;;;12.30;61.50;;;;;;5048112;28;20548;-85
2022/11/30 02:44:47;;;;;;;35.87;13.90;;;12.40;61.50;;;;;;5021452;28;20459;-86
2022/11/30 02:47:22;;;;;;;39.17;15.53;;;12.40;61.40;;;;;;5036407;28;20479;-86
2022/11/30 02:49:55;;;;;;;33.93;14.40;;;12.40;61.40;;;;;;5072511;28;20468;-86
2022/11/30 02:52:26;;;;;;;31.30;14.33;;;12.50;61.40;;;;;;5057742;28;20539;-85
2022/11/30 02:54:53;;;;;;;38.30;15.67;;;12.40;60.90;;;;;;5071360;28;20453;-88
2022/11/30 02:57:20;;;;;;;38.40;15.80;;;12.40;60.90;;;;;;5030056;28;20448;-86
2022/11/30 02:59:47;;;;;;;41.47;16.33;;;12.40;60.90;;;;;;5055757;28;20960;-88
2022/11/30 03:02:14;;;;;;;34.87;16.77;;;12.50;61.00;;;;;;5059613;28;20456;-86
2022/11/30 03:04:42;;;;;;;38.17;14.30;;;12.50;61.00;;;;;;5055446;28;20854;-88
2022/11/30 03:07:09;;;;;;;34.37;15.17;;;12.40;60.70;;;;;;5036517;28;20464;-84
2022/11/30 03:09:36;;;;;;;29.77;15.23;;;12.40;60.80;;;;;;5041378;28;20817;-85
2022/11/30 03:12:04;;;;;;;32.50;14.87;;;12.30;60.80;;;;;;5031307;28;20931;-86
2022/11/30 03:14:31;;;;;;;34.17;14.37;;;12.30;61.00;;;;;;5038392;28;20446;-85
2022/11/30 03:16:57;;;;;;;35.50;14.40;;;12.30;61.10;;;;;;5025280;28;20494;-88
2022/11/30 03:19:25;;;;;;;35.87;14.67;;;12.30;61.20;;;;;;5055395;28;20817;-87
2022/11/30 03:21:53;;;;;;;45.60;15.87;;;12.40;61.20;;;;;;5071662;28;20477;-89
2022/11/30 03:24:20;;;;;;;43.83;17.57;;;12.30;61.20;;;;;;5054888;28;20548;-86
2022/11/30 03:26:47;;;;;;;35.23;15.90;;;12.20;61.50;;;;;;5022172;28;20569;-87
2022/11/30 03:29:14;;;;;;;32.57;15.07;;;12.10;61.70;;;;;;5028792;28;20480;-90
2022/11/30 03:31:41;;;;;;;37.40;15.10;;;12.10;61.80;;;;;;5004401;28;20470;-85
2022/11/30 03:34:08;;;;;;;36.93;16.37;;;12.00;61.90;;;;;;5052656;28;20448;-85
2022/11/30 03:36:35;;;;;;;33.03;15.70;;;12.10;62.00;;;;;;5069495;28;20442;-86
2022/11/30 03:39:04;;;;;;;33.07;14.53;;;12.10;62.00;;;;;;5037127;28;20453;-86
2022/11/30 03:41:31;;;;;;;34.20;14.90;;;12.20;61.80;;;;;;5038186;28;20457;-86
2022/11/30 03:43:58;;;;;;;291.90;110.40;;;12.20;61.30;;;;;;5037190;28;20460;-86
2022/11/30 03:46:26;;;;;;;223.07;77.00;;;12.30;61.10;;;;;;5040268;28;20465;-85
2022/11/30 03:48:53;;;;;;;106.03;44.33;;;12.20;61.20;;;;;;5050562;28;20469;-88
2022/11/30 03:51:20;;;;;;;130.17;50.90;;;12.20;61.20;;;;;;5054374;28;20471;-89
2022/11/30 03:53:47;;;;;;;51.83;19.03;;;12.20;61.30;;;;;;5025040;28;20552;-85
2022/11/30 03:56:16;;;;;;;47.97;21.77;;;12.30;61.40;;;;;;5042582;28;20484;-88
2022/11/30 03:58:43;;;;;;;71.90;31.77;;;12.20;61.50;;;;;;5025377;28;21004;-86
2022/11/30 04:01:12;;;;;;;55.17;28.50;;;12.20;61.40;;;;;;5028296;28;20491;-85
2022/11/30 04:03:40;;;;;;;45.60;17.83;;;12.30;61.40;;;;;;5022323;28;20660;-86
2022/11/30 04:06:08;;;;;;;35.80;16.10;;;12.20;61.20;;;;;;5067425;28;20448;-85
2022/11/30 04:08:37;;;;;;;35.70;15.87;;;12.20;61.50;;;;;;5022495;28;20982;-88
2022/11/30 04:11:05;;;;;;;34.20;14.53;;;12.10;61.70;;;;;;5037987;28;20464;-86
2022/11/30 04:13:35;;;;;;;41.43;16.90;;;12.10;62.00;;;;;;5037443;28;20941;-87
2022/11/30 04:16:02;;;;;;;36.67;16.60;;;12.00;62.10;;;;;;5035206;28;20976;-85
2022/11/30 04:18:31;;;;;;;34.43;15.03;;;12.10;62.00;;;;;;5034427;28;20493;-88
2022/11/30 04:20:59;;;;;;;29.37;14.87;;;12.00;61.50;;;;;;5073477;28;21030;-88
2022/11/30 04:23:30;;;;;;;36.53;17.90;;;12.00;61.60;;;;;;5054817;28;20546;-85
2022/11/30 04:25:57;;;;;;;30.10;16.10;;;12.20;61.80;;;;;;5023301;28;20449;-85
2022/11/30 04:28:24;;;;;;;29.75;15.30;;;12.20;61.60;;;;;;5054250;28;20444;-86
2022/11/30 04:30:53;;;;;;;37.43;17.53;;;12.30;61.60;;;;;;5041384;28;20635;-85
2022/11/30 04:33:20;;;;;;;36.63;16.13;;;12.30;61.30;;;;;;5050624;28;20978;-89
2022/11/30 04:35:51;;;;;;;28.03;15.07;;;12.30;61.00;;;;;;5023789;28;20481;-85
2022/11/30 04:38:18;;;;;;;32.43;16.20;;;12.30;61.20;;;;;;5046531;28;20603;-85
2022/11/30 04:40:45;;;;;;;34.43;14.67;;;12.20;61.30;;;;;;5049514;28;20458;-87
2022/11/30 04:43:12;;;;;;;33.50;16.80;;;12.20;61.70;;;;;;5053992;28;20445;-86
2022/11/30 04:45:40;;;;;;;31.27;15.17;;;12.30;61.60;;;;;;5054823;28;20552;-85
2022/11/30 04:48:08;;;;;;;29.60;15.20;;;12.40;61.50;;;;;;5050892;28;20974;-87
2022/11/30 04:50:36;;;;;;;33.13;14.60;;;12.40;61.40;;;;;;5038259;28;20976;-88
2022/11/30 04:53:03;;;;;;;31.13;15.20;;;12.30;61.40;;;;;;5056290;28;20445;-85
2022/11/30 04:55:30;;;;;;;31.60;15.80;;;12.30;61.30;;;;;;5037010;28;20456;-86
2022/11/30 04:57:57;;;;;;;33.60;14.63;;;12.40;61.30;;;;;;5054934;28;20513;-87
2022/11/30 05:00:25;;;;;;;29.53;14.90;;;12.40;61.30;;;;;;5054891;28;20473;-88
2022/11/30 05:02:52;;;;;;;35.60;14.20;;;12.40;61.30;;;;;;5025229;28;20484;-86
2022/11/30 05:05:21;;;;;;;34.27;16.50;;;12.40;61.30;;;;;;5036689;28;20730;-87
2022/11/30 05:07:49;;;;;;;32.37;17.17;;;12.40;61.40;;;;;;5028198;28;20999;-86
2022/11/30 05:10:16;;;;;;;33.20;15.47;;;12.30;61.00;;;;;;5071225;28;20843;-86
2022/11/30 05:12:43;;;;;;;28.93;15.57;;;12.20;61.50;;;;;;5036999;28;20449;-89
2022/11/30 05:15:11;;;;;;;26.80;14.53;;;12.20;61.50;;;;;;5034074;28;20450;-86
2022/11/30 05:17:38;;;;;;;27.83;15.43;;;12.20;61.40;;;;;;5004017;28;20472;-87
2022/11/30 05:20:06;;;;;;;30.83;14.80;;;12.20;61.50;;;;;;5036318;28;20465;-84
2022/11/30 05:22:35;;;;;;;26.10;14.87;;;12.30;61.50;;;;;;5050360;28;20454;-85
2022/11/30 05:25:02;;;;;;;32.67;15.80;;;12.30;61.30;;;;;;5055179;28;20838;-86
2022/11/30 05:27:29;;;;;;;32.77;15.93;;;12.30;61.20;;;;;;5053614;28;20506;-87
2022/11/30 05:29:56;;;;;;;27.60;15.50;;;12.30;61.00;;;;;;5024917;28;20490;-84
2022/11/30 05:32:23;;;;;;;34.20;15.53;;;12.20;61.20;;;;;;5026904;28;20441;-89
2022/11/30 05:34:50;;;;;;;35.23;15.27;;;12.00;61.70;;;;;;5025886;28;20446;-86
2022/11/30 05:37:17;;;;;;;27.37;15.10;;;12.00;61.90;;;;;;5053833;28;20595;-86
2022/11/30 05:39:45;;;;;;;27.93;14.70;;;12.10;61.80;;;;;;5017851;28;20445;-86
2022/11/30 05:42:12;;;;;;;28.47;16.03;;;12.10;61.30;;;;;;5068336;28;20890;-86
2022/11/30 05:44:39;;;;;;;31.80;16.80;;;12.00;61.70;;;;;;5037343;28;20459;-86
2022/11/30 05:47:06;;;;;;;38.33;16.93;;;12.10;62.00;;;;;;5052728;28;20552;-86
2022/11/30 05:49:33;;;;;;;31.97;16.60;;;12.10;62.10;;;;;;5035246;28;20534;-85
2022/11/30 05:52:00;;;;;;;33.43;16.47;;;12.00;61.80;;;;;;5054310;28;20477;-87
2022/11/30 05:54:27;;;;;;;31.30;15.17;;;12.00;61.60;;;;;;5036902;28;20484;-87
2022/11/30 05:56:56;;;;;;;30.50;15.20;;;11.70;61.90;;;;;;5052610;28;20449;-88
2022/11/30 05:59:23;;;;;;;31.47;14.63;;;11.80;62.10;;;;;;5054345;28;20538;-86
2022/11/30 06:01:52;;;;;;;31.70;14.90;;;11.90;61.90;;;;;;5036089;28;21008;-86
2022/11/30 06:04:20;;;;;;;46.13;17.57;;;12.00;62.00;;;;;;5035053;28;20814;-86
2022/11/30 06:06:48;;;;;;;39.23;16.80;;;12.00;61.60;;;;;;5056922;28;20980;-85
2022/11/30 06:09:15;;;;;;;40.77;17.33;;;11.90;62.00;;;;;;5047025;28;20544;-87
2022/11/30 06:11:42;;;;;;;38.67;16.10;;;11.70;61.60;;;;;;5036051;28;20465;-88
2022/11/30 06:14:10;;;;;;;34.10;15.60;;;11.70;62.50;;;;;;5053206;28;20477;-89
2022/11/30 06:16:38;;;;;;;40.27;16.03;;;11.70;62.60;;;;;;5039311;28;20480;-88
2022/11/30 06:19:05;;;;;;;42.67;16.57;;;11.80;62.40;;;;;;5033624;28;20448;-86
2022/11/30 06:21:32;;;;;;;36.47;16.20;;;11.80;62.00;;;;;;5038611;28;20546;-87
2022/11/30 06:23:59;;;;;;;44.77;17.93;;;11.80;62.60;;;;;;5054602;28;20991;-86
2022/11/30 06:26:26;;;;;;;41.57;17.70;;;11.80;62.10;;;;;;5040132;28;21002;-89
2022/11/30 06:28:53;;;;;;;38.67;15.60;;;11.50;63.00;;;;;;5036146;28;20786;-88
2022/11/30 06:31:22;;;;;;;42.50;17.73;;;11.50;63.40;;;;;;5010777;28;20469;-89
2022/11/30 06:33:49;;;;;;;39.70;18.00;;;11.60;63.00;;;;;;5042932;28;21047;-88
2022/11/30 06:36:21;;;;;;;45.17;18.73;;;11.60;63.10;;;;;;5039302;28;20952;-87
2022/11/30 06:38:49;;;;;;;45.73;18.93;;;11.50;63.90;;;;;;5067745;28;20975;-86
2022/11/30 06:41:16;;;;;;;51.30;17.90;;;11.60;63.40;;;;;;5017855;28;20503;-85
2022/11/30 06:43:43;;;;;;;57.07;20.00;;;11.50;63.40;;;;;;5021577;28;20448;-89
2022/11/30 06:46:10;;;;;;;47.17;21.33;;;11.30;64.10;;;;;;5036981;28;20747;-90
2022/11/30 06:48:39;;;;;;;52.80;18.10;;;11.50;63.90;;;;;;5013626;28;21044;-88
2022/11/30 06:51:07;;;;;;;46.57;18.10;;;11.70;63.60;;;;;;5043366;28;20492;-88
2022/11/30 06:53:34;;;;;;;46.73;17.63;;;11.60;63.50;;;;;;5044932;28;20546;-86
2022/11/30 06:56:04;;;;;;;41.93;17.10;;;11.30;64.40;;;;;;5055740;28;20510;-85
2022/11/30 06:58:31;;;;;;;47.73;20.50;;;11.20;65.00;;;;;;5035786;28;20548;-89
2022/11/30 07:00:58;;;;;;;43.83;16.30;;;11.40;64.40;;;;;;5043203;28;20461;-89
2022/11/30 07:03:26;;;;;;;60.33;19.87;;;11.40;64.30;;;;;;5039368;28;20462;-89
2022/11/30 07:05:54;;;;;;;45.30;17.47;;;11.40;64.10;;;;;;5011439;28;20499;-86
2022/11/30 07:08:21;;;;;;;52.17;17.10;;;11.30;64.50;;;;;;5012986;28;20481;-87
2022/11/30 07:10:48;;;;;;;47.83;18.70;;;11.40;64.50;;;;;;5019967;28;20481;-86
2022/11/30 07:13:17;;;;;;;47.33;17.43;;;11.50;64.00;;;;;;5022915;28;20444;-86
2022/11/30 07:15:45;;;;;;;51.03;17.30;;;11.60;64.10;;;;;;5037093;28;20471;-86
2022/11/30 07:18:13;;;;;;;41.23;16.00;;;11.80;63.80;;;;;;5068633;28;20484;-88
2022/11/30 07:20:40;;;;;;;50.27;17.20;;;11.90;63.20;;;;;;5019144;28;20461;-88
2022/11/30 07:26:06;;;;;;;61.13;18.03;;;11.70;63.50;;;;;;5052126;28;20453;-86
2022/11/30 07:28:34;;;;;;;47.73;16.97;;;11.80;63.20;;;;;;5066453;28;20437;-87
2022/11/30 07:31:02;;;;;;;43.73;17.27;;;11.50;63.50;;;;;;5023508;28;20569;-86
2022/11/30 07:33:31;;;;;;;46.87;17.13;;;11.40;64.60;;;;;;5053365;28;20868;-86
2022/11/30 07:35:58;;;;;;;50.47;17.73;;;11.60;64.30;;;;;;5036645;28;20514;-86
2022/11/30 07:38:26;;;;;;;50.77;18.20;;;11.60;63.90;;;;;;5037922;28;20459;-87
2022/11/30 07:40:53;;;;;;;51.43;20.47;;;11.40;64.60;;;;;;5069671;28;20457;-87
2022/11/30 07:43:20;;;;;;;45.27;19.00;;;11.50;64.50;;;;;;5050883;28;20460;-85
2022/11/30 07:45:52;;;;;;;46.63;17.20;;;11.60;64.50;;;;;;5033518;28;20455;-89
2022/11/30 07:48:19;;;;;;;40.63;16.63;;;11.40;64.20;;;;;;5033503;28;20485;-87
2022/11/30 07:50:46;;;;;;;40.67;18.20;;;11.40;64.70;;;;;;5070138;28;20485;-87
2022/11/30 07:53:13;;;;;;;44.13;18.10;;;11.60;64.30;;;;;;5067259;28;20894;-86
2022/11/30 07:55:42;;;;;;;56.03;20.37;;;11.60;64.00;;;;;;5035341;28;20459;-87
2022/11/30 07:58:10;;;;;;;51.70;18.83;;;11.70;64.10;;;;;;5037346;28;20487;-86
2022/11/30 08:00:37;;;;;;;50.63;20.90;;;11.70;64.00;;;;;;5022305;28;20502;-85
2022/11/30 08:03:04;;;;;;;47.50;18.30;;;11.70;64.10;;;;;;5036118;28;20467;-86
2022/11/30 08:05:32;;;;;;;72.83;25.90;;;11.80;63.40;;;;;;5067299;28;20452;-86
2022/11/30 08:07:59;;;;;;;51.63;17.77;;;11.70;63.60;;;;;;5020942;28;20500;-87
2022/11/30 08:10:26;;;;;;;44.80;17.07;;;11.40;64.50;;;;;;5033270;28;20897;-85
2022/11/30 08:12:55;;;;;;;51.33;18.03;;;11.50;64.50;;;;;;5009709;28;20894;-85
2022/11/30 08:15:22;;;;;;;50.10;19.40;;;11.60;64.40;;;;;;5026071;28;20562;-85
2022/11/30 08:17:53;;;;;;;60.67;20.17;;;11.80;63.90;;;;;;5020066;28;21265;-85
2022/11/30 08:20:22;;;;;;;47.73;20.10;;;12.00;63.50;;;;;;5033905;28;20465;-87
2022/11/30 08:22:50;;;;;;;58.30;19.27;;;11.90;63.30;;;;;;5018749;28;20950;-86
2022/11/30 08:25:17;;;;;;;54.60;21.00;;;12.00;64.40;;;;;;5038079;28;20441;-86
2022/11/30 08:27:45;;;;;;;54.93;21.10;;;12.00;63.60;;;;;;5064685;28;20557;-87
2022/11/30 08:30:13;;;;;;;40.13;17.60;;;11.90;63.60;;;;;;5050441;28;20587;-88
2022/11/30 08:32:40;;;;;;;37.70;18.93;;;11.80;64.10;;;;;;5037322;28;21078;-87
2022/11/30 08:35:08;;;;;;;51.17;17.87;;;11.70;64.20;;;;;;5053088;28;20496;-87
2022/11/30 08:37:37;;;;;;;49.10;17.20;;;11.70;63.90;;;;;;5028971;28;20849;-86
2022/11/30 08:40:06;;;;;;;46.40;18.37;;;11.50;64.60;;;;;;5024346;28;20558;-88
2022/11/30 08:42:33;;;;;;;45.60;17.63;;;11.60;64.90;;;;;;5069770;28;20456;-86
2022/11/30 08:44:59;;;;;;;49.23;18.37;;;11.80;64.50;;;;;;5025895;28;20480;-86
2022/11/30 08:47:29;;;;;;;46.30;18.97;;;12.00;64.10;;;;;;5030242;28;20469;-86
2022/11/30 08:49:56;;;;;;;58.53;20.90;;;12.00;63.50;;;;;;5055438;28;20453;-86
2022/11/30 08:52:24;;;;;;;64.10;19.07;;;12.10;63.40;;;;;;5053079;28;21316;-86
2022/11/30 08:54:51;;;;;;;54.03;18.67;;;12.00;63.30;;;;;;5053793;28;21049;-86
2022/11/30 08:57:20;;;;;;;43.30;19.73;;;12.10;63.20;;;;;;5050915;28;20573;-89
2022/11/30 08:59:47;;;;;;;52.50;19.50;;;12.00;63.20;;;;;;5056836;28;20441;-86
2022/11/30 09:02:16;;;;;;;50.47;18.97;;;12.10;63.30;;;;;;5021426;28;20464;-88
2022/11/30 09:04:46;;;;;;;50.60;19.80;;;12.00;63.10;;;;;;5051436;28;20453;-86
2022/11/30 09:07:13;;;;;;;51.40;20.43;;;12.00;63.20;;;;;;5052492;28;20452;-85
2022/11/30 09:09:40;;;;;;;48.90;18.43;;;11.90;63.40;;;;;;5038161;28;20463;-86
2022/11/30 09:12:07;;;;;;;50.10;18.63;;;12.00;63.20;;;;;;5020976;28;21069;-86
2022/11/30 09:14:34;;;;;;;50.20;21.20;;;12.00;63.00;;;;;;5037908;28;20544;-88
2022/11/30 09:17:01;;;;;;;54.27;20.67;;;12.10;63.30;;;;;;5035960;28;20445;-87
2022/11/30 09:19:29;;;;;;;54.47;19.90;;;12.00;63.20;;;;;;5034259;28;20847;-89
2022/11/30 09:21:57;;;;;;;48.93;19.63;;;12.00;63.50;;;;;;5053177;28;20475;-85
2022/11/30 09:24:24;;;;;;;53.80;19.13;;;12.00;63.20;;;;;;5048721;28;20487;-88
2022/11/30 09:26:54;;;;;;;46.20;18.90;;;12.10;63.20;;;;;;5039084;28;20564;-85
2022/11/30 09:29:21;;;;;;;45.30;20.70;;;12.00;63.30;;;;;;5037800;28;20448;-86
2022/11/30 09:31:49;;;;;;;53.20;19.27;;;12.00;63.50;;;;;;5068767;28;20488;-85
2022/11/30 09:34:16;;;;;;;43.13;17.37;;;12.10;63.50;;;;;;5022189;28;20472;-86
2022/11/30 09:36:42;;;;;;;46.13;18.33;;;12.20;63.00;;;;;;5018512;28;20540;-85
2022/11/30 09:39:12;;;;;;;50.73;19.07;;;12.00;62.90;;;;;;5036849;28;20476;-86
2022/11/30 09:42:16;;;;;;;48.73;18.60;;;12.10;63.10;;;;;;5045140;28;21293;-89
2022/11/30 09:44:51;;;;;;;42.30;16.20;;;12.20;62.80;;;;;;5034286;28;20468;-88
2022/11/30 09:47:37;;;;;;;49.63;17.77;;;12.30;62.80;;;;;;5023210;28;20452;-85
2022/11/30 09:50:12;;;;;;;43.17;18.27;;;12.20;62.40;;;;;;5071015;28;20445;-86
2022/11/30 09:52:43;;;;;;;50.60;19.20;;;12.30;62.40;;;;;;5073301;28;20475;-88
2022/11/30 09:55:17;;;;;;;50.60;18.40;;;12.40;62.30;;;;;;5055584;28;20979;-86
2022/11/30 09:57:47;;;;;;;55.27;17.07;;;12.30;62.40;;;;;;5056602;28;20457;-87
2022/11/30 10:00:16;;;;;;;46.37;16.27;;;12.00;62.80;;;;;;5037974;28;20559;-85
2022/11/30 10:02:43;;;;;;;48.57;18.00;;;12.00;63.10;;;;;;5055386;28;20502;-86
2022/11/30 10:05:15;;;;;;;51.57;17.60;;;12.20;62.80;;;;;;5020174;28;20433;-86
2022/11/30 10:08:08;;;;;;;55.10;19.03;;;12.30;62.70;;;;;;5037194;28;20506;-88
2022/11/30 10:10:40;;;;;;;44.83;20.23;;;12.20;63.30;;;;;;5025498;28;20509;-87
2022/11/30 10:13:23;;;;;;;53.70;18.90;;;12.40;62.60;;;;;;5054939;28;20551;-85
2022/11/30 10:16:02;;;;;;;50.63;20.37;;;12.40;62.20;;;;;;5052066;28;20445;-86
2022/11/30 10:18:38;;;;;;;46.43;18.63;;;12.00;62.80;;;;;;5051909;28;20440;-85
2022/11/30 10:21:20;;;;;;;61.33;19.23;;;11.80;64.00;;;;;;5054521;28;20551;-86
2022/11/30 10:24:01;;;;;;;45.43;17.00;;;11.70;64.40;;;;;;5053673;28;20461;-87
2022/11/30 10:26:34;;;;;;;43.37;18.10;;;11.50;65.00;;;;;;5029499;28;20449;-86
2022/11/30 10:29:13;;;;;;;52.43;18.67;;;11.70;64.50;;;;;;5067584;28;20481;-85
2022/11/30 10:31:42;;;;;;;58.93;19.90;;;11.90;63.80;;;;;;5037078;28;20472;-86
2022/11/30 10:34:19;;;;;;;50.23;21.17;;;11.90;64.00;;;;;;5021244;28;20978;-85
2022/11/30 10:36:50;;;;;;;46.33;19.27;;;12.10;63.80;;;;;;5027886;28;21009;-90
2022/11/30 10:39:22;;;;;;;54.37;20.27;;;12.00;63.50;;;;;;5035774;28;20869;-87
2022/11/30 10:41:56;;;;;;;46.60;21.10;;;12.00;63.90;;;;;;5039596;28;20546;-86
2022/11/30 10:44:27;;;;;;;48.47;19.47;;;12.00;63.50;;;;;;5068282;28;20445;-85
2022/11/30 10:46:59;;;;;;;46.47;18.70;;;11.80;63.90;;;;;;5052270;28;20449;-86
2022/11/30 10:49:29;;;;;;;47.17;18.57;;;11.80;64.10;;;;;;5054653;28;20455;-90
2022/11/30 10:52:00;;;;;;;48.10;18.43;;;11.80;64.10;;;;;;5053241;28;21000;-85
2022/11/30 10:54:31;;;;;;;42.30;19.90;;;12.00;64.60;;;;;;5054994;28;20457;-86
2022/11/30 10:57:02;;;;;;;43.17;20.67;;;12.00;63.10;;;;;;5053157;28;20449;-87
2022/11/30 10:59:38;;;;;;;52.03;21.87;;;12.00;62.50;;;;;;5038498;28;20448;-87
2022/11/30 11:02:37;;;;;;;46.53;18.97;;;12.00;62.50;;;;;;5053131;28;20960;-87
2022/11/30 11:05:19;;;;;;;46.27;20.03;;;11.80;63.10;;;;;;5035912;28;20497;-86
2022/11/30 11:07:56;;;;;;;45.17;19.70;;;12.00;62.70;;;;;;5041583;28;20463;-87
2022/11/30 11:10:30;;;;;;;41.53;16.77;;;12.10;63.00;;;;;;5057741;28;21014;-88
2022/11/30 11:12:58;;;;;;;43.30;21.53;;;12.30;62.50;;;;;;5043319;28;20452;-88
2022/11/30 11:15:27;;;;;;;53.03;22.47;;;12.30;62.50;;;;;;5012905;28;20544;-86
2022/11/30 11:18:20;;;;;;;40.50;19.97;;;12.30;62.80;;;;;;5067270;28;20445;-86
2022/11/30 11:20:47;;;;;;;52.57;23.40;;;12.10;63.40;;;;;;5037133;28;21011;-86
2022/11/30 11:23:22;;;;;;;43.90;21.67;;;12.10;62.60;;;;;;5028902;28;20543;-87
2022/11/30 11:25:52;;;;;;;44.17;21.77;;;12.00;62.50;;;;;;5052245;28;20940;-85
2022/11/30 11:28:23;;;;;;;43.73;21.10;;;12.00;62.80;;;;;;5020443;28;20513;-89
2022/11/30 11:30:53;;;;;;;46.30;21.30;;;11.90;62.70;;;;;;5054453;28;20485;-85
2022/11/30 11:33:23;;;;;;;57.10;22.10;;;11.90;62.80;;;;;;5035223;28;20454;-85
2022/11/30 11:35:52;;;;;;;47.40;21.20;;;11.90;63.20;;;;;;5009378;28;20445;-86
2022/11/30 11:38:25;;;;;;;51.23;19.90;;;11.90;62.70;;;;;;5067454;28;20480;-84
2022/11/30 11:40:56;;;;;;;39.00;17.47;;;11.60;63.40;;;;;;5043592;28;20833;-85
2022/11/30 11:43:27;;;;;;;52.10;19.13;;;11.40;64.10;;;;;;5035831;28;20514;-85
2022/11/30 11:45:57;;;;;;;43.37;19.53;;;11.50;64.30;;;;;;5039557;28;20449;-86
2022/11/30 11:48:31;;;;;;;48.83;18.30;;;11.60;64.10;;;;;;5020793;28;20452;-86
2022/11/30 11:51:00;;;;;;;39.73;19.03;;;11.40;63.60;;;;;;5050816;28;21033;-87
2022/11/30 11:53:42;;;;;;;46.40;19.63;;;11.40;64.10;;;;;;5020702;28;20489;-88
2022/11/30 11:56:16;;;;;;;48.13;20.10;;;11.50;64.50;;;;;;5040718;28;20722;-87
2022/11/30 11:58:50;;;;;;;39.13;17.23;;;11.70;64.20;;;;;;5025626;28;20594;-86
2022/11/30 12:01:32;;;;;;;50.87;20.93;;;11.80;63.50;;;;;;5051977;28;21008;-86
2022/11/30 12:04:12;;;;;;;49.73;18.13;;;11.70;63.20;;;;;;5026947;28;20568;-86
2022/11/30 12:06:42;;;;;;;44.97;18.43;;;11.90;63.10;;;;;;5039124;28;20449;-85
2022/11/30 12:09:15;;;;;;;45.27;19.47;;;12.00;63.00;;;;;;5051896;28;20507;-88
2022/11/30 12:11:45;;;;;;;38.60;17.50;;;12.10;62.80;;;;;;5051346;28;20977;-87
2022/11/30 12:14:15;;;;;;;51.00;21.23;;;12.10;62.40;;;;;;5065666;28;20841;-87
2022/11/30 12:16:55;;;;;;;42.10;16.97;;;12.10;62.10;;;;;;5033596;28;20587;-87
2022/11/30 12:19:27;;;;;;;40.53;18.97;;;12.10;61.40;;;;;;5025871;28;20447;-85
2022/11/30 12:22:04;;;;;;;32.90;16.80;;;12.10;61.70;;;;;;5054949;28;20487;-85
2022/11/30 12:24:46;;;;;;;39.30;18.17;;;12.20;61.60;;;;;;5033275;28;20502;-87
2022/11/30 12:27:21;;;;;;;35.80;16.47;;;12.30;61.20;;;;;;5035885;28;20465;-86
2022/11/30 12:30:00;;;;;;;32.13;15.77;;;12.10;61.10;;;;;;5049271;28;20452;-87
2022/11/30 12:32:39;;;;;;;32.20;17.90;;;11.80;61.90;;;;;;5026188;28;21428;-85
2022/11/30 12:35:20;;;;;;;32.63;16.60;;;11.80;62.10;;;;;;5024396;28;21140;-87
2022/11/30 12:37:58;;;;;;;35.43;16.93;;;11.70;62.60;;;;;;5035765;28;20506;-85
2022/11/30 12:40:36;;;;;;;43.33;20.20;;;11.60;62.40;;;;;;5050175;28;21065;-85
2022/11/30 12:43:12;;;;;;;36.43;19.83;;;11.40;62.90;;;;;;5036167;28;20494;-85